logo
Search for airport 
image banner adimage banner adimage banner ad
image banner ad

YBOW - Mount Barrow

Located in Nunamara, Australia

ICAO - , IATA -

Data provided by Airmate  

General information

Coordinates: S41°22'39" E147°25'0"
Elevation is 4292 feet MSL.
Magnetic variation is 14° East
View others Airports in Tasmania

Operational data

Special qualification required
Current time UTC:
Current local time:
Weather at : YMLT - Launceston ( 25 km )
METAR: YMLT 131632Z AUTO 35007KT 6000 // NCD 09/09 Q1019 RF00.0/000.2
TAF: TAF AMD YMLT 131558Z 1315/1412 33006KT CAVOK FM132100 33008KT 9999 SCT015 FM140000 33012KT 9999 SCT040 FM141000 34008KT CAVOK PROB30 1316/1322 0300 FG
View NOTAMs / SUP AIP / TFR affecting this airport [VIEW]
Communications frequencies: [VIEW]

Runways:

Airport contact information

Address: Nunamara Australia

Satellite view of YBOW